Time;durP1;ratioP1;P1;durP2;ratioP2;P2;SDS_P1;SDS_P2;PMS_P1;PMS_P2;Temp;Humidity;BMP_temperature;BMP_pressure;BME280_temperature;BME280_humidity;BME280_pressure;Samples;Min_cycle;Max_cycle;Signal;HPM_P1;HPM_P2
2022/05/21 00:02:11;;;;;;;1.73;0.77;;;;;;;;;;5035405;28;20056;-64
2022/05/21 00:04:41;;;;;;;4.80;1.25;;;;;;;;;;5033062;28;20123;-63
2022/05/21 00:07:10;;;;;;;5.07;1.23;;;;;;;;;;5031345;28;20128;-64
2022/05/21 00:09:37;;;;;;;3.38;1.17;;;;;;;;;;5031284;28;20044;-64
2022/05/21 00:12:04;;;;;;;5.10;1.10;;;;;;;;;;5031645;28;20045;-64
2022/05/21 00:14:31;;;;;;;2.35;0.95;;;;;;;;;;5031281;28;20521;-63
2022/05/21 00:16:58;;;;;;;2.72;0.90;;;;;;;;;;5029057;28;20040;-64
2022/05/21 00:19:24;;;;;;;3.67;1.40;;;;;;;;;;5030444;28;20128;-64
2022/05/21 00:21:51;;;;;;;3.45;0.77;;;;;;;;;;5030269;28;20673;-64
2022/05/21 00:24:18;;;;;;;3.20;1.30;;;;;;;;;;5031021;28;20044;-64
2022/05/21 00:26:45;;;;;;;2.92;1.15;;;;;;;;;;5022591;28;20037;-65
2022/05/21 00:29:11;;;;;;;3.70;1.17;;;;;;;;;;5030848;28;20044;-64
2022/05/21 00:31:38;;;;;;;4.40;1.30;;;;;;;;;;5030929;28;20547;-64
2022/05/21 00:34:05;;;;;;;3.75;1.20;;;;;;;;;;5029939;28;20037;-65
2022/05/21 00:36:32;;;;;;;3.67;1.42;;;;;;;;;;5029993;28;20041;-64
2022/05/21 00:38:59;;;;;;;3.30;1.13;;;;;;;;;;5030586;28;20053;-65
2022/05/21 00:41:25;;;;;;;3.70;1.30;;;;;;;;;;5029565;28;20044;-65
2022/05/21 00:43:54;;;;;;;3.10;1.30;;;;;;;;;;5021865;28;20033;-64
2022/05/21 00:46:23;;;;;;;4.10;1.50;;;;;;;;;;5029870;28;20124;-66
2022/05/21 00:48:53;;;;;;;3.65;1.40;;;;;;;;;;5011146;28;20030;-66
2022/05/21 00:51:23;;;;;;;4.07;1.55;;;;;;;;;;5026038;28;20041;-64
2022/05/21 00:53:52;;;;;;;4.38;1.60;;;;;;;;;;5030271;28;20425;-65
2022/05/21 00:56:19;;;;;;;3.53;1.33;;;;;;;;;;5029846;28;20038;-64
2022/05/21 01:01:35;;;;;;;3.65;1.30;;;;;;;;;;5028640;28;20682;-65
2022/05/21 01:04:02;;;;;;;5.35;1.45;;;;;;;;;;5031022;28;20041;-63
2022/05/21 01:06:29;;;;;;;3.88;1.50;;;;;;;;;;5029095;28;20033;-64
2022/05/21 01:08:56;;;;;;;3.10;1.15;;;;;;;;;;5019612;28;20040;-63
2022/05/21 01:11:23;;;;;;;3.30;1.25;;;;;;;;;;5028455;28;20445;-63
2022/05/21 01:13:51;;;;;;;3.30;1.20;;;;;;;;;;5028121;28;20041;-64
2022/05/21 01:16:18;;;;;;;3.58;1.40;;;;;;;;;;5028395;28;20038;-64
2022/05/21 01:18:45;;;;;;;3.38;1.42;;;;;;;;;;5022575;28;20055;-64
2022/05/21 01:21:12;;;;;;;3.42;1.10;;;;;;;;;;5030219;28;20033;-64
2022/05/21 01:23:39;;;;;;;3.63;1.10;;;;;;;;;;5031529;28;20037;-64
2022/05/21 01:26:08;;;;;;;3.45;1.10;;;;;;;;;;5032972;28;20045;-65
2022/05/21 01:28:37;;;;;;;2.70;0.93;;;;;;;;;;5028264;28;20045;-64
2022/05/21 01:31:03;;;;;;;2.97;1.05;;;;;;;;;;5029988;28;20060;-64
2022/05/21 01:33:36;;;;;;;1.85;0.88;;;;;;;;;;5030056;28;20082;-63
2022/05/21 01:36:06;;;;;;;2.25;0.90;;;;;;;;;;5030902;28;20029;-64
2022/05/21 01:38:33;;;;;;;2.90;1.17;;;;;;;;;;5028704;28;20132;-65
2022/05/21 01:41:00;;;;;;;4.63;1.30;;;;;;;;;;5031029;28;20132;-63
2022/05/21 01:46:12;;;;;;;2.45;1.05;;;;;;;;;;5042353;28;20596;-64
2022/05/21 01:48:39;;;;;;;2.22;0.93;;;;;;;;;;5054289;28;20124;-62
2022/05/21 01:51:06;;;;;;;2.28;0.90;;;;;;;;;;5056159;28;20060;-64
2022/05/21 01:53:33;;;;;;;4.05;1.30;;;;;;;;;;5057939;28;20123;-64
2022/05/21 01:56:04;;;;;;;2.25;0.90;;;;;;;;;;5051495;28;20032;-63
2022/05/21 01:58:32;;;;;;;2.80;1.17;;;;;;;;;;5071740;28;20096;-64
2022/05/21 02:00:59;;;;;;;2.78;1.05;;;;;;;;;;5068860;28;20042;-63
2022/05/21 02:03:26;;;;;;;4.40;1.50;;;;;;;;;;5053163;28;20068;-64
2022/05/21 02:05:53;;;;;;;3.20;1.02;;;;;;;;;;5053897;28;20047;-63
2022/05/21 02:08:20;;;;;;;1.92;0.85;;;;;;;;;;5054374;28;20040;-64
2022/05/21 02:10:47;;;;;;;2.78;1.10;;;;;;;;;;5054972;28;20037;-64
2022/05/21 02:13:21;;;;;;;2.78;1.10;;;;;;;;;;5053779;28;20040;-61
2022/05/21 02:15:49;;;;;;;3.30;1.17;;;;;;;;;;5052155;28;20983;-62
2022/05/21 02:18:16;;;;;;;2.80;1.25;;;;;;;;;;5054101;28;20048;-60
2022/05/21 02:20:43;;;;;;;3.22;1.20;;;;;;;;;;5054617;28;20101;-61
2022/05/21 02:23:11;;;;;;;3.20;1.27;;;;;;;;;;5052006;28;20037;-65
2022/05/21 02:25:38;;;;;;;3.10;1.27;;;;;;;;;;5049578;28;20044;-64
2022/05/21 02:28:05;;;;;;;2.13;0.82;;;;;;;;;;5052025;28;20046;-65
2022/05/21 02:30:32;;;;;;;3.20;1.35;;;;;;;;;;5048102;28;20045;-65
2022/05/21 02:33:01;;;;;;;1.63;0.70;;;;;;;;;;5050942;28;20044;-63
2022/05/21 02:35:28;;;;;;;3.88;1.25;;;;;;;;;;5054277;28;20051;-60
2022/05/21 02:40:40;;;;;;;3.50;1.30;;;;;;;;;;5054853;28;21262;-64
2022/05/21 02:43:07;;;;;;;5.32;1.33;;;;;;;;;;5056546;28;20098;-63
2022/05/21 02:45:34;;;;;;;3.75;1.30;;;;;;;;;;5042165;28;20037;-64
2022/05/21 02:48:01;;;;;;;3.20;1.20;;;;;;;;;;5025281;28;20041;-64
2022/05/21 02:50:30;;;;;;;3.20;1.30;;;;;;;;;;5029848;28;20131;-63
2022/05/21 02:52:57;;;;;;;3.50;1.33;;;;;;;;;;5028455;28;20037;-64
2022/05/21 02:55:24;;;;;;;3.85;1.10;;;;;;;;;;5028657;28;20060;-64
2022/05/21 02:58:01;;;;;;;3.47;1.23;;;;;;;;;;5028916;28;20589;-64
2022/05/21 03:00:30;;;;;;;4.90;1.30;;;;;;;;;;5017462;28;20036;-64
2022/05/21 03:02:57;;;;;;;3.95;1.42;;;;;;;;;;5019261;28;20172;-63
2022/05/21 03:05:25;;;;;;;3.35;1.35;;;;;;;;;;5008376;28;20561;-63
2022/05/21 03:07:52;;;;;;;3.58;1.48;;;;;;;;;;5021461;28;20129;-64
2022/05/21 03:10:21;;;;;;;6.30;1.33;;;;;;;;;;5006969;28;20566;-63
2022/05/21 03:12:52;;;;;;;2.25;1.00;;;;;;;;;;5012536;28;20107;-63
2022/05/21 03:15:19;;;;;;;3.15;1.10;;;;;;;;;;5025761;28;20088;-64
2022/05/21 03:17:47;;;;;;;2.95;1.10;;;;;;;;;;5026041;28;20041;-63
2022/05/21 03:20:15;;;;;;;3.58;1.30;;;;;;;;;;5020961;28;20045;-64
2022/05/21 03:22:42;;;;;;;3.83;1.30;;;;;;;;;;5027868;28;20033;-64
2022/05/21 03:25:12;;;;;;;4.68;1.23;;;;;;;;;;5028081;28;20091;-63
2022/05/21 03:27:41;;;;;;;3.42;1.33;;;;;;;;;;5023741;28;20052;-63
2022/05/21 03:30:09;;;;;;;3.75;1.48;;;;;;;;;;5029796;28;20035;-61
2022/05/21 03:32:36;;;;;;;3.85;1.20;;;;;;;;;;5028231;28;20449;-64
2022/05/21 03:35:03;;;;;;;2.90;1.27;;;;;;;;;;5026920;28;20033;-64
2022/05/21 03:37:32;;;;;;;3.47;1.20;;;;;;;;;;5025068;28;20072;-64
2022/05/21 03:39:59;;;;;;;3.80;1.48;;;;;;;;;;5022747;28;20037;-64
2022/05/21 03:42:26;;;;;;;4.13;1.38;;;;;;;;;;5016771;28;20197;-64
2022/05/21 03:44:52;;;;;;;3.03;1.20;;;;;;;;;;5027636;28;20041;-65
2022/05/21 03:47:19;;;;;;;3.40;1.35;;;;;;;;;;5042666;28;20083;-64
2022/05/21 03:49:46;;;;;;;3.58;1.25;;;;;;;;;;5047033;28;20067;-64
2022/05/21 03:52:15;;;;;;;4.05;1.40;;;;;;;;;;5031508;28;20131;-63
2022/05/21 03:54:42;;;;;;;3.97;1.60;;;;;;;;;;5025531;28;20484;-64
2022/05/21 03:57:11;;;;;;;3.75;1.30;;;;;;;;;;5024760;28;20045;-64
2022/05/21 03:59:37;;;;;;;4.35;1.60;;;;;;;;;;5025789;28;20068;-62
2022/05/21 04:02:05;;;;;;;3.42;1.38;;;;;;;;;;5028078;28;20037;-63
2022/05/21 04:04:31;;;;;;;4.75;1.50;;;;;;;;;;5025131;28;20072;-65
2022/05/21 04:06:58;;;;;;;4.00;1.42;;;;;;;;;;5029124;28;20596;-59
2022/05/21 04:09:34;;;;;;;3.25;1.40;;;;;;;;;;5026189;28;20160;-63
2022/05/21 04:12:05;;;;;;;3.15;1.38;;;;;;;;;;5026855;28;20049;-64
2022/05/21 04:14:32;;;;;;;3.80;1.50;;;;;;;;;;5017010;28;20079;-63
2022/05/21 04:17:00;;;;;;;5.80;1.40;;;;;;;;;;5026339;28;20037;-64
2022/05/21 04:19:27;;;;;;;4.68;1.42;;;;;;;;;;5024685;28;20048;-63
2022/05/21 04:21:54;;;;;;;4.22;1.50;;;;;;;;;;5034660;28;20070;-63
2022/05/21 04:24:21;;;;;;;3.33;1.27;;;;;;;;;;5029952;28;20175;-62
2022/05/21 04:26:51;;;;;;;5.00;1.10;;;;;;;;;;5031111;28;21805;-65
2022/05/21 04:29:17;;;;;;;3.47;1.45;;;;;;;;;;5049896;28;20056;-63
2022/05/21 04:31:44;;;;;;;3.97;1.40;;;;;;;;;;5035890;28;20029;-62
2022/05/21 04:34:11;;;;;;;5.35;1.50;;;;;;;;;;5039313;28;20041;-63
2022/05/21 04:36:38;;;;;;;5.55;1.60;;;;;;;;;;5032471;28;20029;-63
2022/05/21 04:39:05;;;;;;;3.30;1.23;;;;;;;;;;5028921;28;20045;-64
2022/05/21 04:41:33;;;;;;;4.57;1.70;;;;;;;;;;5029022;28;20045;-63
2022/05/21 04:44:00;;;;;;;3.88;1.73;;;;;;;;;;5030341;28;20053;-64
2022/05/21 04:46:26;;;;;;;3.60;1.55;;;;;;;;;;5040210;28;20512;-63
2022/05/21 04:48:53;;;;;;;9.65;1.55;;;;;;;;;;5051670;28;20052;-62
2022/05/21 04:51:20;;;;;;;3.13;1.42;;;;;;;;;;5040329;28;20067;-61
2022/05/21 04:53:47;;;;;;;4.55;1.58;;;;;;;;;;5034901;28;20069;-64
2022/05/21 04:56:14;;;;;;;6.60;1.73;;;;;;;;;;5054064;28;20047;-61
2022/05/21 04:58:41;;;;;;;4.18;1.70;;;;;;;;;;5049296;28;20112;-62
2022/05/21 05:01:08;;;;;;;4.95;1.38;;;;;;;;;;5050187;28;20044;-60
2022/05/21 05:03:35;;;;;;;3.65;1.40;;;;;;;;;;5053483;28;20044;-62
2022/05/21 05:06:02;;;;;;;3.90;1.50;;;;;;;;;;5053379;28;20086;-64
2022/05/21 05:08:29;;;;;;;3.78;1.70;;;;;;;;;;5049955;28;20051;-64
2022/05/21 05:10:56;;;;;;;3.90;1.60;;;;;;;;;;5040899;28;20040;-63
2022/05/21 05:13:23;;;;;;;3.60;1.50;;;;;;;;;;5049088;28;20477;-65
2022/05/21 05:15:49;;;;;;;5.28;1.50;;;;;;;;;;5051481;28;20036;-59
2022/05/21 05:18:18;;;;;;;4.22;1.55;;;;;;;;;;5048968;28;20044;-61
2022/05/21 05:20:45;;;;;;;4.53;1.70;;;;;;;;;;5051481;28;20055;-64
2022/05/21 05:23:12;;;;;;;3.78;1.67;;;;;;;;;;5051379;28;20127;-63
2022/05/21 05:25:39;;;;;;;4.72;1.85;;;;;;;;;;5050434;28;20106;-64
2022/05/21 05:28:13;;;;;;;4.55;1.60;;;;;;;;;;5058709;28;20117;-65
2022/05/21 05:30:40;;;;;;;3.50;1.50;;;;;;;;;;5043796;28;20090;-62
2022/05/21 05:33:06;;;;;;;4.30;1.92;;;;;;;;;;5063019;28;20127;-63
2022/05/21 05:35:33;;;;;;;3.85;1.55;;;;;;;;;;5054100;28;20048;-62
2022/05/21 05:38:04;;;;;;;4.65;1.70;;;;;;;;;;5053907;28;20048;-63
2022/05/21 05:40:32;;;;;;;3.58;1.58;;;;;;;;;;5048345;28;20044;-64
2022/05/21 05:42:59;;;;;;;2.47;1.08;;;;;;;;;;5047934;28;20068;-63
2022/05/21 05:45:26;;;;;;;3.35;1.52;;;;;;;;;;5047340;28;20378;-63
2022/05/21 05:47:52;;;;;;;3.55;1.08;;;;;;;;;;5048466;28;20807;-63
2022/05/21 05:50:19;;;;;;;4.05;1.70;;;;;;;;;;5048005;28;20123;-63
2022/05/21 05:52:46;;;;;;;5.50;2.05;;;;;;;;;;5047237;28;20057;-64
2022/05/21 05:55:13;;;;;;;5.03;1.52;;;;;;;;;;5049281;28;20040;-64
2022/05/21 05:57:39;;;;;;;4.68;1.60;;;;;;;;;;5046740;28;20844;-64
2022/05/21 06:00:07;;;;;;;3.78;1.63;;;;;;;;;;5032095;28;20033;-63
2022/05/21 06:05:22;;;;;;;3.40;1.50;;;;;;;;;;5048881;28;20097;-64
2022/05/21 06:07:53;;;;;;;3.90;1.52;;;;;;;;;;5046581;28;20040;-63
2022/05/21 06:10:22;;;;;;;3.72;1.38;;;;;;;;;;5031745;28;20036;-63
2022/05/21 06:12:49;;;;;;;3.97;1.35;;;;;;;;;;5047837;28;20124;-62
2022/05/21 06:15:16;;;;;;;4.00;1.60;;;;;;;;;;5032001;28;20166;-63
2022/05/21 06:17:43;;;;;;;3.70;1.75;;;;;;;;;;5046864;28;20049;-63
2022/05/21 06:20:14;;;;;;;3.78;1.70;;;;;;;;;;5048124;28;20591;-63
2022/05/21 06:22:41;;;;;;;3.92;1.60;;;;;;;;;;5046080;28;20269;-63
2022/05/21 06:25:08;;;;;;;5.93;1.67;;;;;;;;;;5048510;28;20124;-64
2022/05/21 06:27:34;;;;;;;3.88;1.45;;;;;;;;;;5046806;28;20047;-65
2022/05/21 06:30:01;;;;;;;3.95;1.88;;;;;;;;;;5030405;28;20087;-63
2022/05/21 06:32:28;;;;;;;4.45;1.98;;;;;;;;;;5047798;28;20045;-63
2022/05/21 06:34:55;;;;;;;4.20;1.67;;;;;;;;;;5048468;28;20032;-63
2022/05/21 06:37:21;;;;;;;4.72;1.95;;;;;;;;;;5038039;28;20048;-64
2022/05/21 06:39:48;;;;;;;3.70;1.60;;;;;;;;;;5048229;28;21925;-64
2022/05/21 06:42:15;;;;;;;5.05;1.77;;;;;;;;;;5033498;28;20128;-64
2022/05/21 06:44:42;;;;;;;3.58;1.60;;;;;;;;;;5046759;28;20097;-64
2022/05/21 06:47:09;;;;;;;3.55;1.73;;;;;;;;;;5047305;28;20072;-64
2022/05/21 06:49:36;;;;;;;4.05;1.90;;;;;;;;;;5048198;28;20028;-64
2022/05/21 06:52:03;;;;;;;11.40;2.10;;;;;;;;;;5047107;28;20053;-65
2022/05/21 06:54:30;;;;;;;3.83;1.55;;;;;;;;;;5047883;28;20398;-64
2022/05/21 06:56:57;;;;;;;5.93;2.17;;;;;;;;;;5048114;28;20043;-64
2022/05/21 06:59:23;;;;;;;4.85;1.80;;;;;;;;;;5048054;28;20930;-64
2022/05/21 07:01:50;;;;;;;5.57;2.03;;;;;;;;;;5050566;28;20128;-64
2022/05/21 07:07:32;;;;;;;3.83;1.83;;;;;;;;;;5051737;28;20278;-65
2022/05/21 07:09:48;;;;;;;4.38;1.90;;;;;;;;;;5043244;28;20078;-64
2022/05/21 07:12:15;;;;;;;4.18;1.90;;;;;;;;;;5036505;28;20036;-64
2022/05/21 07:14:42;;;;;;;3.88;1.65;;;;;;;;;;5046822;28;20581;-64
2022/05/21 07:17:28;;;;;;;4.68;2.00;;;;;;;;;;5009457;28;20092;-64
2022/05/21 07:19:55;;;;;;;4.82;2.13;;;;;;;;;;5008991;28;20596;-65
2022/05/21 07:22:22;;;;;;;6.15;1.83;;;;;;;;;;5008444;28;20514;-65
2022/05/21 07:24:49;;;;;;;3.92;1.85;;;;;;;;;;5010189;28;20084;-65
2022/05/21 07:27:16;;;;;;;3.42;1.80;;;;;;;;;;5007875;28;20110;-65
2022/05/21 07:29:44;;;;;;;3.67;1.60;;;;;;;;;;4991388;28;20060;-65
2022/05/21 07:32:21;;;;;;;3.38;1.55;;;;;;;;;;5008607;28;20045;-65
2022/05/21 07:34:48;;;;;;;3.42;1.70;;;;;;;;;;5010830;28;20056;-67
2022/05/21 07:37:15;;;;;;;3.58;1.77;;;;;;;;;;5009541;28;20046;-65
2022/05/21 07:39:41;;;;;;;4.22;1.50;;;;;;;;;;5007234;28;20041;-64
2022/05/21 07:42:08;;;;;;;3.92;1.50;;;;;;;;;;5010176;28;20029;-65
2022/05/21 07:44:35;;;;;;;3.65;1.70;;;;;;;;;;5009405;28;20714;-66
2022/05/21 07:47:02;;;;;;;3.88;1.65;;;;;;;;;;5010627;28;20055;-65
2022/05/21 07:49:28;;;;;;;3.83;1.63;;;;;;;;;;5008286;28;20038;-65
2022/05/21 07:51:57;;;;;;;3.55;1.55;;;;;;;;;;5009607;28;20050;-66
2022/05/21 07:54:24;;;;;;;3.97;1.73;;;;;;;;;;5018489;28;20048;-65
2022/05/21 07:56:51;;;;;;;5.63;1.70;;;;;;;;;;5048519;28;20037;-64
2022/05/21 07:59:17;;;;;;;3.72;1.65;;;;;;;;;;5051403;28;20140;-64
2022/05/21 08:01:44;;;;;;;5.63;1.52;;;;;;;;;;5037119;28;20040;-63
2022/05/21 08:04:11;;;;;;;4.05;1.75;;;;;;;;;;5055423;28;20056;-65
2022/05/21 08:06:37;;;;;;;5.07;1.60;;;;;;;;;;5053434;28;20597;-65
2022/05/21 08:09:04;;;;;;;3.88;1.77;;;;;;;;;;5054619;28;20036;-64
2022/05/21 08:11:31;;;;;;;3.13;1.45;;;;;;;;;;5052239;28;20040;-64
2022/05/21 08:13:58;;;;;;;5.50;1.98;;;;;;;;;;5055586;28;20033;-65
2022/05/21 08:16:24;;;;;;;6.30;1.80;;;;;;;;;;5053272;28;20032;-63
2022/05/21 08:18:51;;;;;;;4.32;1.80;;;;;;;;;;5054145;28;20582;-65
2022/05/21 08:21:18;;;;;;;3.20;1.48;;;;;;;;;;5050371;28;20037;-64
2022/05/21 08:29:14;;;;;;;3.50;1.60;;;;;;;;;;5044590;28;20550;-64
2022/05/21 08:31:41;;;;;;;4.85;1.58;;;;;;;;;;5029872;28;20037;-64
2022/05/21 08:34:08;;;;;;;4.30;1.70;;;;;;;;;;5031852;28;20025;-64
2022/05/21 08:36:34;;;;;;;4.35;1.75;;;;;;;;;;5014421;28;20595;-64
2022/05/21 08:39:01;;;;;;;5.97;1.70;;;;;;;;;;5019027;28;20056;-64
2022/05/21 08:41:30;;;;;;;4.30;1.92;;;;;;;;;;5029532;28;20059;-65
2022/05/21 08:43:56;;;;;;;5.18;1.80;;;;;;;;;;5043664;28;20042;-65
2022/05/21 08:46:26;;;;;;;4.78;1.70;;;;;;;;;;5031310;28;20063;-65
2022/05/21 08:49:18;;;;;;;3.92;1.70;;;;;;;;;;5028785;28;20067;-65
2022/05/21 08:52:14;;;;;;;3.95;1.70;;;;;;;;;;5023227;28;20048;-64
2022/05/21 08:54:45;;;;;;;5.10;1.50;;;;;;;;;;5020106;28;20242;-64
2022/05/21 08:57:32;;;;;;;4.35;2.08;;;;;;;;;;5033433;28;20045;-65
2022/05/21 09:00:04;;;;;;;4.03;1.80;;;;;;;;;;5027658;28;20769;-65
2022/05/21 09:02:33;;;;;;;3.33;1.50;;;;;;;;;;5030386;28;20050;-65
2022/05/21 09:05:01;;;;;;;6.30;1.90;;;;;;;;;;5029265;28;20041;-64
2022/05/21 09:07:29;;;;;;;4.40;1.77;;;;;;;;;;5031727;28;20044;-64
2022/05/21 09:10:04;;;;;;;4.45;1.85;;;;;;;;;;5030932;28;20033;-66
2022/05/21 09:12:42;;;;;;;5.00;2.22;;;;;;;;;;5029613;28;20597;-64
2022/05/21 09:16:54;;;;;;;3.90;1.70;;;;;;;;;;5030147;28;20131;-64
2022/05/21 09:18:01;;;;;;;4.47;1.73;;;;;;;;;;5028255;28;20119;-64
2022/05/21 09:20:31;;;;;;;4.15;1.95;;;;;;;;;;5028390;28;20038;-64
2022/05/21 09:23:00;;;;;;;4.43;1.95;;;;;;;;;;5020119;28;20037;-65
2022/05/21 09:25:27;;;;;;;3.28;1.58;;;;;;;;;;5027553;28;20194;-65
2022/05/21 09:28:14;;;;;;;3.88;1.77;;;;;;;;;;5029016;28;20091;-65
2022/05/21 09:30:42;;;;;;;3.47;1.50;;;;;;;;;;5028875;28;20044;-65
2022/05/21 09:33:23;;;;;;;4.07;1.85;;;;;;;;;;5029570;28;20156;-65
2022/05/21 09:35:55;;;;;;;4.97;2.13;;;;;;;;;;5010952;28;20091;-64
2022/05/21 09:38:26;;;;;;;4.35;1.92;;;;;;;;;;5007936;28;20945;-65
2022/05/21 09:41:08;;;;;;;3.88;1.80;;;;;;;;;;5008214;28;20041;-63
2022/05/21 09:46:23;;;;;;;5.78;1.92;;;;;;;;;;5022303;28;20151;-64
2022/05/21 09:48:50;;;;;;;4.57;2.15;;;;;;;;;;5031798;28;20033;-64
2022/05/21 09:51:31;;;;;;;4.65;2.13;;;;;;;;;;5048881;28;20076;-64
2022/05/21 09:53:58;;;;;;;4.55;1.73;;;;;;;;;;5032041;28;20131;-64
2022/05/21 09:56:26;;;;;;;4.60;1.88;;;;;;;;;;5047303;28;20048;-65
2022/05/21 09:59:13;;;;;;;6.60;2.20;;;;;;;;;;5046915;28;20040;-64
2022/05/21 10:01:41;;;;;;;4.32;2.10;;;;;;;;;;5047247;28;20584;-65
2022/05/21 10:04:31;;;;;;;4.43;2.30;;;;;;;;;;5047110;28;20063;-65
2022/05/21 10:07:04;;;;;;;5.30;2.10;;;;;;;;;;5038291;28;20044;-64
2022/05/21 10:12:34;;;;;;;3.70;1.90;;;;;;;;;;5051110;28;20094;-64
2022/05/21 10:15:01;;;;;;;4.30;2.05;;;;;;;;;;5053143;28;20119;-64
2022/05/21 10:17:31;;;;;;;4.57;1.80;;;;;;;;;;5054968;28;20064;-65
2022/05/21 10:20:16;;;;;;;4.60;1.90;;;;;;;;;;5054581;28;20041;-65
2022/05/21 10:22:45;;;;;;;4.70;1.85;;;;;;;;;;5034773;28;20835;-64
2022/05/21 10:25:20;;;;;;;4.97;1.88;;;;;;;;;;5051595;28;20037;-65
2022/05/21 10:28:02;;;;;;;3.58;1.67;;;;;;;;;;5050239;28;20163;-66
2022/05/21 10:30:49;;;;;;;4.07;1.85;;;;;;;;;;5039656;28;20578;-64
2022/05/21 10:33:34;;;;;;;4.80;1.92;;;;;;;;;;5052597;28;20041;-65
2022/05/21 10:36:13;;;;;;;3.88;1.90;;;;;;;;;;5051099;28;20037;-64
2022/05/21 10:38:45;;;;;;;3.78;1.60;;;;;;;;;;5052079;28;20596;-64
2022/05/21 10:41:24;;;;;;;6.53;1.93;;;;;;;;;;5053672;28;20060;-64
2022/05/21 10:43:58;;;;;;;4.38;1.90;;;;;;;;;;5052487;28;20044;-65
2022/05/21 10:46:28;;;;;;;4.95;2.13;;;;;;;;;;5049134;28;20547;-65
2022/05/21 10:49:08;;;;;;;4.05;2.08;;;;;;;;;;5049775;28;20044;-63
2022/05/21 10:51:36;;;;;;;4.63;2.13;;;;;;;;;;5049286;28;20040;-64
2022/05/21 10:54:24;;;;;;;4.35;1.67;;;;;;;;;;5050216;28;20044;-63
2022/05/21 10:56:53;;;;;;;6.50;2.25;;;;;;;;;;5050334;28;20048;-63
2022/05/21 10:59:32;;;;;;;4.00;1.90;;;;;;;;;;5046079;28;20575;-63
2022/05/21 11:02:07;;;;;;;4.28;2.03;;;;;;;;;;5047822;28;20450;-64
2022/05/21 11:04:52;;;;;;;4.90;1.95;;;;;;;;;;5037328;28;20049;-65
2022/05/21 11:07:28;;;;;;;4.07;1.85;;;;;;;;;;5047267;28;20040;-61
2022/05/21 11:09:54;;;;;;;5.70;2.08;;;;;;;;;;5029118;28;20044;-64
2022/05/21 11:12:47;;;;;;;5.38;1.92;;;;;;;;;;5045936;28;20127;-65
2022/05/21 11:15:32;;;;;;;4.53;2.17;;;;;;;;;;5040912;28;20041;-64
2022/05/21 11:18:03;;;;;;;4.20;1.90;;;;;;;;;;5047132;28;20048;-63
2022/05/21 11:20:42;;;;;;;3.63;1.58;;;;;;;;;;5046214;28;20044;-64
2022/05/21 11:23:14;;;;;;;3.85;1.67;;;;;;;;;;5038092;28;20052;-63
2022/05/21 11:26:10;;;;;;;4.25;1.73;;;;;;;;;;5046695;28;20044;-64
2022/05/21 11:28:48;;;;;;;4.40;1.73;;;;;;;;;;5036790;28;20071;-64
2022/05/21 11:37:18;;;;;;;3.55;1.80;;;;;;;;;;5048421;28;20509;-64
2022/05/21 11:39:37;;;;;;;4.88;1.80;;;;;;;;;;5052661;28;20063;-64
2022/05/21 11:42:04;;;;;;;4.15;1.85;;;;;;;;;;5053373;28;20037;-65
2022/05/21 11:47:26;;;;;;;4.35;2.22;;;;;;;;;;5050820;28;20057;-65
2022/05/21 11:50:08;;;;;;;4.13;1.80;;;;;;;;;;5053004;28;20072;-66
2022/05/21 11:52:35;;;;;;;4.60;2.20;;;;;;;;;;5054069;28;20044;-67
2022/05/21 11:55:21;;;;;;;3.35;1.67;;;;;;;;;;5043155;28;20036;-65
2022/05/21 11:57:50;;;;;;;4.30;2.00;;;;;;;;;;5053716;28;20045;-64
2022/05/21 12:00:17;;;;;;;6.10;2.20;;;;;;;;;;5053417;28;20037;-64
2022/05/21 12:02:56;;;;;;;6.53;1.90;;;;;;;;;;5050619;28;20037;-65
2022/05/21 12:05:38;;;;;;;4.00;1.90;;;;;;;;;;5049676;28;20049;-65
2022/05/21 12:08:15;;;;;;;5.57;2.40;;;;;;;;;;5049760;28;20037;-64
2022/05/21 12:10:57;;;;;;;3.75;1.83;;;;;;;;;;5048601;28;20036;-65
2022/05/21 12:13:38;;;;;;;3.92;1.77;;;;;;;;;;5048998;28;20040;-65
2022/05/21 12:16:21;;;;;;;4.63;1.90;;;;;;;;;;5049156;28;20111;-65
2022/05/21 12:18:52;;;;;;;4.78;2.00;;;;;;;;;;5048700;28;20102;-65
2022/05/21 12:21:32;;;;;;;4.97;2.10;;;;;;;;;;5051377;28;20045;-65
2022/05/21 12:24:02;;;;;;;4.35;1.92;;;;;;;;;;5049241;28;20139;-64
2022/05/21 12:26:35;;;;;;;4.25;1.80;;;;;;;;;;5049555;28;20500;-64
2022/05/21 12:29:11;;;;;;;3.50;1.70;;;;;;;;;;5049758;28;20125;-64
2022/05/21 12:31:40;;;;;;;5.13;2.20;;;;;;;;;;5052155;28;20048;-63
2022/05/21 12:34:27;;;;;;;7.13;2.05;;;;;;;;;;5050754;28;20054;-62
2022/05/21 12:37:10;;;;;;;4.32;1.95;;;;;;;;;;5048902;28;20552;-64
2022/05/21 12:39:36;;;;;;;6.03;2.00;;;;;;;;;;5047623;28;20394;-64
2022/05/21 12:42:09;;;;;;;4.65;2.25;;;;;;;;;;5049151;28;20041;-65
2022/05/21 12:44:36;;;;;;;3.63;1.55;;;;;;;;;;5050255;28;20051;-64
2022/05/21 12:47:03;;;;;;;5.95;2.10;;;;;;;;;;5048674;28;20945;-66
2022/05/21 12:49:29;;;;;;;4.68;2.10;;;;;;;;;;5050297;28;20102;-64
2022/05/21 12:51:56;;;;;;;4.15;2.17;;;;;;;;;;5049636;28;20041;-63
2022/05/21 12:54:24;;;;;;;4.60;2.22;;;;;;;;;;5050094;28;20063;-63
2022/05/21 12:56:52;;;;;;;8.07;2.20;;;;;;;;;;5049554;28;20041;-63
2022/05/21 12:59:22;;;;;;;5.05;2.38;;;;;;;;;;5050371;28;20060;-64
2022/05/21 13:01:51;;;;;;;3.83;1.90;;;;;;;;;;5049862;28;20512;-64
2022/05/21 13:04:22;;;;;;;4.53;2.00;;;;;;;;;;5050177;28;20045;-64
2022/05/21 13:06:53;;;;;;;5.80;2.30;;;;;;;;;;5037942;28;20189;-65
2022/05/21 13:09:20;;;;;;;5.55;2.20;;;;;;;;;;5049437;28;20048;-65
2022/05/21 13:11:47;;;;;;;4.43;2.30;;;;;;;;;;5039253;28;20045;-64
2022/05/21 13:14:19;;;;;;;3.97;2.00;;;;;;;;;;5049023;28;20032;-67
2022/05/21 13:16:51;;;;;;;5.55;2.20;;;;;;;;;;5047411;28;20060;-64
2022/05/21 13:19:48;;;;;;;6.60;2.22;;;;;;;;;;5048686;28;20409;-64
2022/05/21 13:22:15;;;;;;;6.50;2.10;;;;;;;;;;4963995;28;20035;-64
2022/05/21 13:25:00;;;;;;;3.78;1.73;;;;;;;;;;5048377;28;20120;-64
2022/05/21 13:27:27;;;;;;;4.28;2.20;;;;;;;;;;5048511;28;20107;-64
2022/05/21 13:29:54;;;;;;;4.05;1.90;;;;;;;;;;5048376;28;20611;-63
2022/05/21 13:32:23;;;;;;;5.38;2.15;;;;;;;;;;5030577;28;20045;-63
2022/05/21 13:34:49;;;;;;;3.67;1.83;;;;;;;;;;5037595;28;20064;-63
2022/05/21 13:37:17;;;;;;;4.13;1.80;;;;;;;;;;5050374;28;20461;-64
2022/05/21 13:39:51;;;;;;;3.72;1.80;;;;;;;;;;5049920;28;20048;-65
2022/05/21 13:42:19;;;;;;;4.47;1.90;;;;;;;;;;5049171;28;20600;-64
2022/05/21 13:44:48;;;;;;;4.55;1.98;;;;;;;;;;5050269;28;20041;-63
2022/05/21 13:47:26;;;;;;;3.92;1.70;;;;;;;;;;5050045;28;20070;-67
2022/05/21 13:49:54;;;;;;;7.75;2.00;;;;;;;;;;5051294;28;20033;-64
2022/05/21 13:52:21;;;;;;;4.90;1.88;;;;;;;;;;5052043;28;20158;-65
2022/05/21 13:54:48;;;;;;;4.47;1.60;;;;;;;;;;5050314;28;20042;-65
2022/05/21 13:57:22;;;;;;;4.18;1.88;;;;;;;;;;5049950;28;20043;-65
2022/05/21 13:59:49;;;;;;;3.90;1.75;;;;;;;;;;5049173;28;20098;-65
2022/05/21 14:02:30;;;;;;;3.72;1.77;;;;;;;;;;5049857;28;20036;-65
2022/05/21 14:04:57;;;;;;;4.28;2.00;;;;;;;;;;5048888;28;20044;-64
2022/05/21 14:07:31;;;;;;;4.53;2.08;;;;;;;;;;5050952;28;20158;-64
2022/05/21 14:10:00;;;;;;;4.78;2.08;;;;;;;;;;5049204;28;20057;-64
2022/05/21 14:12:40;;;;;;;3.75;1.70;;;;;;;;;;5049520;28;20036;-66
2022/05/21 14:15:27;;;;;;;2.70;1.30;;;;;;;;;;5049737;28;20051;-67
2022/05/21 14:17:58;;;;;;;7.32;2.63;;;;;;;;;;5050313;28;20060;-66
2022/05/21 14:20:29;;;;;;;4.28;1.80;;;;;;;;;;5051938;28;21153;-64
2022/05/21 14:23:17;;;;;;;4.55;1.77;;;;;;;;;;5034225;28;20123;-62
2022/05/21 14:25:43;;;;;;;5.40;1.80;;;;;;;;;;5052958;28;20589;-62
2022/05/21 14:28:16;;;;;;;3.50;1.77;;;;;;;;;;5052382;28;20118;-63
2022/05/21 14:30:47;;;;;;;4.20;1.92;;;;;;;;;;5035260;28;20051;-62
2022/05/21 14:33:14;;;;;;;3.28;1.35;;;;;;;;;;5056443;28;20387;-63
2022/05/21 14:35:41;;;;;;;3.53;1.70;;;;;;;;;;5057034;28;20122;-62
2022/05/21 14:38:08;;;;;;;4.65;1.70;;;;;;;;;;5034726;28;20753;-64
2022/05/21 14:40:45;;;;;;;3.80;1.60;;;;;;;;;;5047834;28;20541;-62
2022/05/21 14:43:18;;;;;;;3.63;1.63;;;;;;;;;;5049167;28;20052;-62
2022/05/21 14:45:45;;;;;;;4.00;1.85;;;;;;;;;;5050901;28;20044;-63
2022/05/21 14:48:12;;;;;;;3.60;1.73;;;;;;;;;;5051091;28;20037;-63
2022/05/21 14:53:30;;;;;;;5.07;1.75;;;;;;;;;;5052821;28;20071;-62
2022/05/21 14:55:57;;;;;;;4.45;1.65;;;;;;;;;;5051462;28;20044;-62
2022/05/21 14:58:25;;;;;;;3.55;1.70;;;;;;;;;;5051075;28;20052;-63
2022/05/21 15:00:53;;;;;;;4.53;1.67;;;;;;;;;;5052211;28;20045;-61
2022/05/21 15:03:19;;;;;;;5.75;2.08;;;;;;;;;;5051662;28;20032;-63
2022/05/21 15:05:48;;;;;;;3.80;1.80;;;;;;;;;;5051793;28;20040;-62
2022/05/21 15:08:17;;;;;;;5.68;1.60;;;;;;;;;;5056149;28;20696;-63
2022/05/21 15:10:44;;;;;;;4.25;1.80;;;;;;;;;;5049829;28;20041;-64
2022/05/21 15:13:11;;;;;;;5.05;2.00;;;;;;;;;;5053975;28;20044;-64
2022/05/21 15:15:38;;;;;;;4.18;1.85;;;;;;;;;;5053834;28;20564;-63
2022/05/21 15:18:04;;;;;;;5.18;1.77;;;;;;;;;;5054450;28;20273;-61
2022/05/21 15:20:31;;;;;;;3.67;1.40;;;;;;;;;;5050975;28;20040;-61
2022/05/21 15:22:58;;;;;;;4.20;1.60;;;;;;;;;;5039581;28;20515;-61
2022/05/21 15:25:25;;;;;;;3.22;1.58;;;;;;;;;;5051846;28;20071;-63
2022/05/21 15:27:52;;;;;;;3.92;1.50;;;;;;;;;;5050053;28;20036;-62
2022/05/21 15:30:19;;;;;;;3.92;1.60;;;;;;;;;;5050310;28;20612;-60
2022/05/21 15:32:46;;;;;;;3.47;1.65;;;;;;;;;;5031198;28;20123;-62
2022/05/21 15:35:13;;;;;;;4.78;1.63;;;;;;;;;;5048260;28;20037;-61
2022/05/21 15:37:41;;;;;;;3.30;1.42;;;;;;;;;;5047394;28;20041;-60